createdAt,value
2023-01-30T00:02:15.621Z,6.96
2023-01-30T00:06:17.569Z,6.98
2023-01-30T00:10:20.250Z,6.98
2023-01-30T00:14:22.077Z,6.96
2023-01-30T00:18:24.293Z,6.97
2023-01-30T00:22:26.414Z,6.97
2023-01-30T00:26:28.229Z,6.96
2023-01-30T00:30:30.486Z,6.96
2023-01-30T00:34:33.026Z,6.95
2023-01-30T00:38:34.879Z,6.96
2023-01-30T00:42:55.179Z,6.95
2023-01-30T00:47:06.024Z,6.95
2023-01-30T00:51:08.465Z,6.95
2023-01-30T00:55:10.327Z,6.95
2023-01-30T00:59:12.044Z,6.94
2023-01-30T01:03:13.980Z,6.93
2023-01-30T01:07:15.845Z,6.94
2023-01-30T01:11:24.676Z,6.94
2023-01-30T01:15:27.204Z,6.93
2023-01-30T01:19:29.088Z,6.91
2023-01-30T01:23:30.811Z,6.89
2023-01-30T01:27:32.694Z,6.90
2023-01-30T01:31:34.524Z,6.89
2023-01-30T01:35:40.958Z,6.90
2023-01-30T01:40:01.492Z,6.91
2023-01-30T01:44:11.638Z,6.90
2023-01-30T01:49:00.780Z,6.85
2023-01-30T01:53:03.200Z,6.80
2023-01-30T01:57:15.906Z,6.76
2023-01-30T02:01:18.172Z,6.71
2023-01-30T02:05:21.711Z,6.70
2023-01-30T02:09:23.977Z,6.70
2023-01-30T02:13:26.298Z,6.71
2023-01-30T02:17:29.255Z,6.74
2023-01-30T02:21:37.082Z,6.76
2023-01-30T02:26:04.218Z,6.79
2023-01-30T02:30:09.707Z,6.82
2023-01-30T02:34:29.544Z,6.86
2023-01-30T02:38:54.774Z,6.89
2023-01-30T02:43:25.646Z,6.91
2023-01-30T02:47:28.087Z,6.90
2023-01-30T02:51:32.539Z,6.91
2023-01-30T02:55:34.705Z,6.92
2023-01-30T02:59:43.429Z,6.95
2023-01-30T03:03:56.287Z,6.95
2023-01-30T03:08:24.547Z,6.98
2023-01-30T03:12:59.020Z,6.99
2023-01-30T03:17:04.478Z,7.00
2023-01-30T03:21:08.435Z,7.00
2023-01-30T03:25:14.104Z,7.02
2023-01-30T03:29:16.170Z,7.02
2023-01-30T03:33:18.218Z,7.03
2023-01-30T03:37:23.157Z,7.04
2023-01-30T03:41:25.031Z,7.04
2023-01-30T03:45:26.780Z,7.03
2023-01-30T03:49:28.753Z,7.03
2023-01-30T03:53:31.578Z,7.02
2023-01-30T03:57:33.984Z,7.01
2023-01-30T04:01:36.466Z,7.00
2023-01-30T04:05:38.491Z,6.98
2023-01-30T04:09:42.809Z,6.96
2023-01-30T04:13:45.698Z,6.94
2023-01-30T04:17:47.998Z,6.94
2023-01-30T04:22:03.903Z,6.94
2023-01-30T04:26:06.574Z,6.95
2023-01-30T04:30:12.023Z,7.00
2023-01-30T04:34:14.469Z,7.05
2023-01-30T04:38:16.408Z,7.10
2023-01-30T04:42:18.303Z,7.10
2023-01-30T04:46:37.042Z,7.12
2023-01-30T04:50:40.111Z,7.14
2023-01-30T04:54:41.969Z,7.14
2023-01-30T04:58:43.721Z,7.10
2023-01-30T05:02:47.104Z,7.03
2023-01-30T05:06:48.806Z,6.94
2023-01-30T05:10:50.564Z,6.89
2023-01-30T05:14:52.307Z,6.82
2023-01-30T05:18:54.015Z,6.75
2023-01-30T05:22:55.754Z,6.69
2023-01-30T05:26:57.499Z,6.63
2023-01-30T05:31:04.189Z,6.59
2023-01-30T05:35:06.743Z,6.53
2023-01-30T05:39:08.587Z,6.49
2023-01-30T05:43:10.365Z,6.45
2023-01-30T05:47:12.092Z,6.43
2023-01-30T05:51:24.923Z,6.38
2023-01-30T05:55:26.711Z,6.34
2023-01-30T05:59:28.525Z,6.33
2023-01-30T06:03:30.600Z,6.31
2023-01-30T06:07:32.655Z,6.28
2023-01-30T06:11:34.590Z,6.24
2023-01-30T06:15:36.424Z,6.24
2023-01-30T06:19:38.089Z,6.21
2023-01-30T06:23:39.917Z,6.20
2023-01-30T06:27:43.388Z,6.20
2023-01-30T06:31:45.190Z,6.24
2023-01-30T06:35:49.941Z,6.23
2023-01-30T06:39:51.741Z,6.21
2023-01-30T06:43:53.652Z,6.20
2023-01-30T06:47:56.360Z,6.17
2023-01-30T06:51:58.112Z,6.13
2023-01-30T06:56:00.132Z,6.11
2023-01-30T07:00:03.521Z,6.10
2023-01-30T07:04:05.457Z,6.10
2023-01-30T07:08:07.649Z,6.07
2023-01-30T07:12:09.378Z,6.06
2023-01-30T07:16:11.069Z,6.03
2023-01-30T07:20:12.987Z,6.01
2023-01-30T07:24:14.703Z,6.00
2023-01-30T07:28:16.406Z,6.02
2023-01-30T07:32:20.036Z,5.99
2023-01-30T07:36:21.917Z,6.00
2023-01-30T07:40:24.561Z,6.01
2023-01-30T07:44:26.310Z,6.01
2023-01-30T07:48:28.048Z,6.02
2023-01-30T07:52:29.747Z,6.03
2023-01-30T07:56:31.551Z,6.02
2023-01-30T08:00:33.392Z,6.02
2023-01-30T08:04:35.199Z,6.04
2023-01-30T08:08:37.136Z,6.08
2023-01-30T08:12:40.663Z,6.10
2023-01-30T08:16:42.441Z,6.11
2023-01-30T08:20:44.792Z,6.11
2023-01-30T08:24:46.492Z,6.15
2023-01-30T08:28:48.345Z,6.16
2023-01-30T08:32:50.109Z,6.15
2023-01-30T08:36:51.889Z,6.17
2023-01-30T08:40:53.579Z,6.19
2023-01-30T08:44:55.298Z,6.23
2023-01-30T08:48:57.028Z,6.29
2023-01-30T08:53:03.966Z,6.34
2023-01-30T08:57:05.656Z,6.41
2023-01-30T09:01:07.955Z,6.46
2023-01-30T09:05:11.191Z,6.49
2023-01-30T09:09:12.957Z,6.52
2023-01-30T09:13:14.706Z,6.54
2023-01-30T09:17:16.423Z,6.56
2023-01-30T09:21:18.194Z,6.58
2023-01-30T09:25:20.000Z,6.60
2023-01-30T09:29:21.847Z,6.61
2023-01-30T09:33:23.723Z,6.64
2023-01-30T09:37:25.449Z,6.64
2023-01-30T09:41:51.978Z,6.67
2023-01-30T09:46:12.816Z,6.68
2023-01-30T09:50:39.878Z,6.70
2023-01-30T09:54:44.796Z,6.73
2023-01-30T09:58:55.905Z,6.77
2023-01-30T10:03:06.766Z,6.80
2023-01-30T10:07:46.919Z,6.82
2023-01-30T10:12:10.405Z,6.85
2023-01-30T10:16:15.033Z,6.87
2023-01-30T10:20:29.807Z,6.88
2023-01-30T10:24:50.590Z,6.89
2023-01-30T10:29:07.014Z,6.94
2023-01-30T10:33:22.966Z,6.94
2023-01-30T10:37:33.462Z,6.94
2023-01-30T10:41:47.199Z,6.95
2023-01-30T10:46:04.238Z,6.94
2023-01-30T10:50:41.214Z,6.96
2023-01-30T10:54:55.267Z,7.00
2023-01-30T10:59:24.052Z,6.98
2023-01-30T11:03:41.998Z,6.98
2023-01-30T11:07:46.017Z,6.95
2023-01-30T11:11:51.013Z,6.95
2023-01-30T11:15:56.325Z,6.94
2023-01-30T11:20:08.761Z,6.95
2023-01-30T11:24:22.707Z,6.94
2023-01-30T11:28:26.435Z,6.92
2023-01-30T11:32:29.643Z,6.94
2023-01-30T11:36:35.978Z,6.98
2023-01-30T11:40:40.122Z,7.01
2023-01-30T11:44:42.595Z,7.07
2023-01-30T11:49:02.331Z,7.10
2023-01-30T11:53:24.378Z,7.13
2023-01-30T11:57:26.311Z,7.16
2023-01-30T12:01:31.435Z,7.22
2023-01-30T12:05:37.066Z,7.23
2023-01-30T12:09:41.007Z,7.23
2023-01-30T12:13:47.265Z,7.17
2023-01-30T12:18:04.376Z,7.14
2023-01-30T12:22:21.415Z,7.08
2023-01-30T12:26:37.589Z,7.08
2023-01-30T12:31:01.873Z,7.15
2023-01-30T12:35:15.943Z,7.15
2023-01-30T12:39:29.761Z,7.20
2023-01-30T12:44:12.924Z,7.23
2023-01-30T12:48:48.553Z,7.23
2023-01-30T12:53:02.779Z,7.25
2023-01-30T12:57:10.677Z,7.25
2023-01-30T13:01:28.275Z,7.25
2023-01-30T13:05:37.666Z,7.32
2023-01-30T13:09:45.573Z,7.40
2023-01-30T13:13:56.873Z,7.45
2023-01-30T13:18:37.669Z,7.40
2023-01-30T13:23:06.688Z,7.41
2023-01-30T13:27:13.885Z,7.39
2023-01-30T13:31:21.493Z,7.36
2023-01-30T13:35:29.029Z,7.32
2023-01-30T13:39:36.585Z,7.29
2023-01-30T13:43:50.408Z,7.28
2023-01-30T13:48:13.840Z,7.29
2023-01-30T13:52:31.940Z,7.31
2023-01-30T13:56:45.816Z,7.28
2023-01-30T14:00:57.356Z,7.24
2023-01-30T14:04:59.200Z,7.22
2023-01-30T14:09:05.852Z,7.23
2023-01-30T14:13:08.644Z,7.25
2023-01-30T14:17:15.121Z,7.23
2023-01-30T14:21:24.633Z,7.20
2023-01-30T14:25:32.960Z,7.17
2023-01-30T14:29:37.631Z,7.14
2023-01-30T14:33:50.890Z,7.16
2023-01-30T14:38:09.950Z,7.18
2023-01-30T14:42:19.819Z,7.21
2023-01-30T14:46:21.491Z,7.27
2023-01-30T14:50:23.713Z,7.31
2023-01-30T14:54:41.311Z,7.30
2023-01-30T14:59:02.869Z,7.29
2023-01-30T15:03:20.066Z,7.24
2023-01-30T15:07:31.614Z,7.22
2023-01-30T15:11:35.272Z,7.22
2023-01-30T15:15:49.389Z,7.21
2023-01-30T15:20:13.358Z,7.19
2023-01-30T15:24:33.248Z,7.19
2023-01-30T15:28:54.671Z,7.20
2023-01-30T15:33:23.021Z,7.19
2023-01-30T15:37:47.919Z,7.18
2023-01-30T15:41:52.691Z,7.13
2023-01-30T15:46:09.316Z,7.10
2023-01-30T15:50:11.677Z,7.04
2023-01-30T15:54:21.234Z,7.02
2023-01-30T15:58:23.831Z,6.98
2023-01-30T16:02:35.064Z,6.94
2023-01-30T16:06:38.035Z,6.88
2023-01-30T16:10:52.637Z,6.80
2023-01-30T16:15:05.746Z,6.79
2023-01-30T16:19:40.427Z,6.77
2023-01-30T16:23:51.628Z,6.73
2023-01-30T16:27:53.841Z,6.70
2023-01-30T16:31:56.057Z,6.71
2023-01-30T16:35:59.334Z,6.71
2023-01-30T16:40:03.477Z,6.71
2023-01-30T16:44:22.755Z,6.74
2023-01-30T16:48:36.997Z,6.80
2023-01-30T16:52:46.167Z,6.82
2023-01-30T16:56:51.635Z,6.83
2023-01-30T17:00:53.483Z,6.83
2023-01-30T17:04:55.656Z,6.86
2023-01-30T17:08:59.004Z,6.83
2023-01-30T17:13:00.934Z,6.80
2023-01-30T17:17:07.910Z,6.82
2023-01-30T17:21:13.779Z,6.82
2023-01-30T17:25:38.914Z,6.79
2023-01-30T17:29:43.815Z,6.73
2023-01-30T17:33:46.063Z,6.68
2023-01-30T17:37:59.802Z,6.65
2023-01-30T17:42:09.847Z,6.55
2023-01-30T17:46:12.954Z,6.49
2023-01-30T17:50:14.897Z,6.44
2023-01-30T17:54:17.382Z,6.39
2023-01-30T17:58:19.446Z,6.34
2023-01-30T18:02:21.318Z,6.26
2023-01-30T18:06:23.059Z,6.26
2023-01-30T18:10:24.920Z,6.13
2023-01-30T18:14:26.839Z,5.99
2023-01-30T18:18:28.666Z,5.91
2023-01-30T18:22:30.508Z,5.91
2023-01-30T18:26:33.444Z,5.92
2023-01-30T18:30:35.303Z,5.92
2023-01-30T18:34:37.836Z,5.90
2023-01-30T18:38:39.745Z,5.88
2023-01-30T18:42:41.668Z,5.85
2023-01-30T18:46:43.458Z,5.81
2023-01-30T18:50:45.416Z,5.75
2023-01-30T18:54:47.521Z,5.74
2023-01-30T18:58:56.403Z,5.70
2023-01-30T19:02:58.487Z,5.66
2023-01-30T19:07:00.283Z,5.63
2023-01-30T19:11:29.421Z,5.61
2023-01-30T19:15:35.151Z,5.62
2023-01-30T19:19:37.257Z,5.59
2023-01-30T19:23:39.069Z,5.57
2023-01-30T19:27:40.833Z,5.56
2023-01-30T19:31:42.933Z,5.56
2023-01-30T19:35:45.691Z,5.57
2023-01-30T19:39:50.262Z,5.52
2023-01-30T19:43:56.282Z,5.49
2023-01-30T19:48:01.010Z,5.50
2023-01-30T19:52:03.642Z,5.50
2023-01-30T19:56:06.296Z,5.50
2023-01-30T20:00:13.196Z,5.50
2023-01-30T20:04:17.718Z,5.50
2023-01-30T20:08:32.162Z,5.45
2023-01-30T20:12:35.858Z,5.44
2023-01-30T20:16:38.462Z,5.48
2023-01-30T20:20:43.449Z,5.49
2023-01-30T20:24:45.447Z,5.47
2023-01-30T20:28:47.712Z,5.46
2023-01-30T20:32:55.902Z,5.47
2023-01-30T20:37:00.391Z,5.48
2023-01-30T20:41:22.819Z,5.51
2023-01-30T20:45:24.775Z,5.53
2023-01-30T20:49:26.654Z,5.54
2023-01-30T20:53:28.433Z,5.56
2023-01-30T20:57:36.072Z,5.57
2023-01-30T21:01:41.167Z,5.58
2023-01-30T21:05:45.607Z,5.57
2023-01-30T21:09:47.444Z,5.55
2023-01-30T21:13:49.749Z,5.52
2023-01-30T21:17:53.990Z,5.50
2023-01-30T21:21:55.743Z,5.47
2023-01-30T21:26:06.881Z,5.45
2023-01-30T21:30:09.241Z,5.42
2023-01-30T21:34:11.107Z,5.39
2023-01-30T21:38:32.914Z,5.37
2023-01-30T21:42:52.972Z,5.32
2023-01-30T21:46:54.825Z,5.28
2023-01-30T21:50:56.879Z,5.25
2023-01-30T21:54:59.052Z,5.23
2023-01-30T21:59:03.735Z,5.20
2023-01-30T22:03:11.808Z,5.18
2023-01-30T22:07:15.562Z,5.16
2023-01-30T22:11:20.587Z,5.15
2023-01-30T22:15:22.799Z,5.14
2023-01-30T22:19:24.666Z,5.11
2023-01-30T22:23:31.580Z,5.09
2023-01-30T22:27:33.288Z,5.03
2023-01-30T22:31:37.362Z,4.96
2023-01-30T22:35:39.578Z,4.90
2023-01-30T22:39:42.828Z,4.82
2023-01-30T22:43:46.896Z,4.78
2023-01-30T22:47:48.683Z,4.73
2023-01-30T22:51:50.530Z,4.70
2023-01-30T22:55:52.371Z,4.67
2023-01-30T22:59:54.134Z,4.61
2023-01-30T23:03:57.989Z,4.55
2023-01-30T23:08:05.136Z,4.46
2023-01-30T23:12:25.783Z,4.42
2023-01-30T23:16:28.302Z,4.42
2023-01-30T23:20:30.720Z,4.39
2023-01-30T23:24:32.819Z,4.34
2023-01-30T23:28:39.049Z,4.33
2023-01-30T23:32:41.114Z,4.33
2023-01-30T23:36:46.678Z,4.30
2023-01-30T23:40:49.231Z,4.29
2023-01-30T23:44:51.052Z,4.27
2023-01-30T23:48:55.796Z,4.26
2023-01-30T23:52:57.717Z,4.23
2023-01-30T23:56:59.468Z,4.22
